Time;durP1;ratioP1;P1;durP2;ratioP2;P2;SDS_P1;SDS_P2;PMS_P1;PMS_P2;Temp;Humidity;BMP_temperature;BMP_pressure;BME280_temperature;BME280_humidity;BME280_pressure;Samples;Min_cycle;Max_cycle;Signal;HPM_P1;HPM_P2
2023/04/12 00:02:22;;;;;;;2.90;1.70;;;;;;;10.23;74.29;100493.72;5073728;28;20425;-85
2023/04/12 00:04:54;;;;;;;4.57;1.48;;;;;;;10.29;74.76;100461.75;5077112;28;20032;-85
2023/04/12 00:07:20;;;;;;;3.00;1.23;;;;;;;10.20;74.08;100462.13;5077763;28;20922;-85
2023/04/12 00:09:46;;;;;;;4.32;1.88;;;;;;;10.03;74.80;100454.97;5083493;28;20029;-85
2023/04/12 00:12:11;;;;;;;5.13;1.73;;;;;;;10.13;75.24;100440.44;5082119;28;20050;-85
2023/04/12 00:14:36;;;;;;;3.50;1.50;;;;;;;10.13;76.04;100436.94;5086165;28;20067;-85
2023/04/12 00:17:01;;;;;;;5.13;1.63;;;;;;;10.08;76.12;100428.34;5083749;28;20090;-85
2023/04/12 00:19:29;;;;;;;3.58;1.65;;;;;;;10.16;75.45;100423.56;5088174;28;20055;-85
2023/04/12 00:21:55;;;;;;;5.22;1.60;;;;;;;10.07;75.94;100427.50;5076305;28;20036;-85
2023/04/12 00:24:20;;;;;;;4.68;1.60;;;;;;;10.00;76.82;100426.03;5074144;28;20027;-85
2023/04/12 00:26:46;;;;;;;6.20;1.50;;;;;;;10.01;77.71;100406.63;5080580;28;20028;-86
2023/04/12 00:29:11;;;;;;;7.78;2.05;;;;;;;9.80;77.38;100397.03;5086863;28;20090;-85
2023/04/12 00:31:36;;;;;;;5.45;1.45;;;;;;;9.92;76.77;100375.34;5084614;28;20516;-85
2023/04/12 00:34:01;;;;;;;4.43;1.80;;;;;;;9.96;76.68;100384.84;5092735;28;20031;-85
2023/04/12 00:36:27;;;;;;;4.35;1.58;;;;;;;10.00;76.72;100380.31;5077749;28;20036;-85
2023/04/12 00:38:52;;;;;;;6.82;1.55;;;;;;;9.91;77.20;100379.78;5075753;28;20125;-85
2023/04/12 00:41:17;;;;;;;3.72;1.35;;;;;;;9.82;78.21;100352.94;5074475;28;20036;-85
2023/04/12 00:43:43;;;;;;;5.32;1.35;;;;;;;9.84;78.15;100349.31;5074401;28;20056;-85
2023/04/12 00:46:10;;;;;;;4.70;1.67;;;;;;;9.85;78.02;100342.25;5072560;28;20032;-85
2023/04/12 00:48:36;;;;;;;6.00;1.50;;;;;;;9.75;78.29;100340.94;5074871;28;20032;-85
2023/04/12 00:51:03;;;;;;;5.75;1.63;;;;;;;9.67;78.32;100326.28;5077879;28;20160;-85
2023/04/12 00:53:30;;;;;;;6.20;1.30;;;;;;;9.78;78.78;100327.59;5070402;28;20110;-86
2023/04/12 00:55:55;;;;;;;5.45;1.70;;;;;;;9.73;78.29;100329.59;5074822;28;20035;-85
2023/04/12 00:58:23;;;;;;;5.53;1.95;;;;;;;9.71;78.82;100319.09;5088646;28;20023;-85
2023/04/12 01:00:54;;;;;;;5.80;1.50;;;;;;;9.76;78.35;100309.19;5075860;28;20072;-86
2023/04/12 01:03:23;;;;;;;5.53;1.40;;;;;;;9.74;78.49;100300.47;5073144;28;20321;-86
2023/04/12 01:06:32;;;;;;;7.78;1.95;;;;;;;9.63;79.03;100292.19;5078944;28;20016;-85
2023/04/12 01:09:14;;;;;;;4.50;1.60;;;;;;;9.77;78.12;100278.38;5060621;28;20514;-86
2023/04/12 01:11:52;;;;;;;4.05;1.60;;;;;;;9.66;78.96;100274.44;5074536;28;20480;-86
2023/04/12 01:14:39;;;;;;;2.58;1.40;;;;;;;9.63;78.96;100269.28;5069811;28;20062;-86
2023/04/12 01:17:13;;;;;;;5.03;1.50;;;;;;;9.64;78.68;100263.06;5072611;28;20028;-85
2023/04/12 01:19:56;;;;;;;4.75;2.17;;;;;;;9.63;78.91;100250.81;5068732;28;20447;-85
2023/04/12 01:22:28;;;;;;;7.88;2.13;;;;;;;9.56;79.94;100236.19;5080094;28;20032;-85
2023/04/12 01:25:09;;;;;;;4.00;1.20;;;;;;;9.61;79.17;100236.84;5074958;28;20024;-85
2023/04/12 01:27:53;;;;;;;6.45;1.85;;;;;;;9.54;79.02;100226.63;5082563;28;20032;-85
2023/04/12 01:30:19;;;;;;;6.20;1.80;;;;;;;9.53;79.06;100212.59;5079445;28;20117;-85
2023/04/12 01:32:50;;;;;;;5.57;2.10;;;;;;;9.55;79.48;100209.88;5079975;28;20406;-86
2023/04/12 01:35:16;;;;;;;4.93;1.73;;;;;;;9.56;79.13;100204.53;5070991;28;20024;-86
2023/04/12 01:37:42;;;;;;;3.60;1.50;;;;;;;9.65;78.83;100203.22;5081768;28;20032;-86
2023/04/12 01:40:08;;;;;;;6.43;1.83;;;;;;;9.55;80.15;100192.25;5073972;28;20024;-85
2023/04/12 01:42:34;;;;;;;6.00;1.70;;;;;;;9.52;79.82;100181.84;5095856;28;20039;-85
2023/04/12 01:45:00;;;;;;;4.88;1.60;;;;;;;9.46;79.98;100163.66;5086830;28;20043;-85
2023/04/12 01:47:26;;;;;;;9.20;1.70;;;;;;;9.49;79.48;100163.50;5079807;28;20165;-85
2023/04/12 01:50:10;;;;;;;5.18;1.77;;;;;;;9.49;80.01;100162.66;5075326;28;20120;-85
2023/04/12 01:52:42;;;;;;;6.75;1.90;;;;;;;9.50;80.24;100162.56;5079134;28;20028;-86
2023/04/12 01:55:09;;;;;;;6.73;1.87;;;;;;;9.59;79.21;100156.88;5078830;28;20127;-85
2023/04/12 01:57:36;;;;;;;7.25;1.90;;;;;;;9.58;78.39;100155.16;5082321;28;20114;-86
2023/04/12 02:00:05;;;;;;;4.90;1.55;;;;;;;9.50;79.09;100144.09;5082869;28;20491;-85
2023/04/12 02:02:31;;;;;;;4.68;2.05;;;;;;;9.54;79.19;100134.28;5087165;28;20480;-85
2023/04/12 02:04:58;;;;;;;7.88;2.25;;;;;;;9.59;78.98;100124.34;5076269;28;20066;-85
2023/04/12 02:07:24;;;;;;;6.47;1.67;;;;;;;9.51;79.13;100110.66;5073544;28;20055;-85
2023/04/12 02:09:49;;;;;;;5.65;1.90;;;;;;;9.59;79.06;100108.53;5093149;27;20070;-86
2023/04/12 02:12:15;;;;;;;6.57;1.83;;;;;;;9.50;79.41;100101.03;5082108;28;20539;-85
2023/04/12 02:14:40;;;;;;;5.38;1.70;;;;;;;9.54;79.05;100102.59;5082839;28;20483;-86
2023/04/12 02:17:06;;;;;;;3.30;1.38;;;;;;;9.53;78.58;100099.13;5082620;28;20123;-85
2023/04/12 02:19:32;;;;;;;5.22;1.50;;;;;;;9.57;78.64;100089.28;5082755;28;20027;-85
2023/04/12 02:21:57;;;;;;;2.72;1.73;;;;;;;9.56;78.94;100077.88;5080667;28;20025;-86
2023/04/12 02:24:23;;;;;;;4.00;1.55;;;;;;;9.57;78.69;100074.28;5080826;28;20040;-85
2023/04/12 02:26:51;;;;;;;4.07;2.03;;;;;;;9.51;78.53;100053.47;5080703;28;20020;-85
2023/04/12 02:29:16;;;;;;;4.28;1.50;;;;;;;9.57;78.05;100052.34;5087878;28;20059;-85
2023/04/12 02:31:42;;;;;;;4.50;1.38;;;;;;;9.60;78.44;100039.81;5083001;28;20393;-85
2023/04/12 02:34:07;;;;;;;2.80;1.40;;;;;;;9.49;79.97;100044.78;5086743;28;20023;-85
2023/04/12 02:36:34;;;;;;;3.67;1.90;;;;;;;9.41;79.40;100033.72;5082114;28;20028;-85
2023/04/12 02:38:59;;;;;;;3.35;1.60;;;;;;;9.48;78.65;100035.16;5084082;28;20031;-85
2023/04/12 02:41:25;;;;;;;2.35;1.30;;;;;;;9.52;78.92;100020.03;5088252;28;20521;-85
2023/04/12 02:43:50;;;;;;;6.05;1.60;;;;;;;9.45;79.35;100003.63;5070591;28;20541;-85
2023/04/12 02:46:22;;;;;;;6.18;1.83;;;;;;;9.51;78.99;100002.47;5082996;28;20051;-85
2023/04/12 02:48:48;;;;;;;5.40;2.05;;;;;;;9.51;79.34;100000.69;5072153;28;20080;-85
2023/04/12 02:51:14;;;;;;;6.18;1.55;;;;;;;9.55;78.15;99990.84;5081786;28;20047;-85
2023/04/12 02:53:39;;;;;;;3.92;1.23;;;;;;;9.54;78.62;99978.59;5076360;28;20478;-85
2023/04/12 02:56:05;;;;;;;7.32;1.80;;;;;;;9.43;79.80;99979.97;5079225;28;20028;-85
2023/04/12 02:58:32;;;;;;;5.07;1.30;;;;;;;9.43;78.67;99974.72;5079925;28;20478;-85
2023/04/12 03:00:58;;;;;;;7.82;1.98;;;;;;;9.45;79.33;99977.25;5069762;28;20022;-85
2023/04/12 03:03:25;;;;;;;3.75;1.60;;;;;;;9.55;78.58;99956.53;5071575;28;20043;-85
2023/04/12 03:05:51;;;;;;;2.60;1.38;;;;;;;9.42;79.30;99949.25;5070427;28;20025;-85
2023/04/12 03:08:17;;;;;;;2.88;1.40;;;;;;;9.42;79.76;99943.97;5070515;28;20039;-86
2023/04/12 03:10:42;;;;;;;4.35;1.33;;;;;;;9.39;79.89;99940.63;5084256;28;20016;-86
2023/04/12 03:13:08;;;;;;;3.20;1.63;;;;;;;9.45;78.92;99932.41;5071828;28;20055;-86
2023/04/12 03:15:33;;;;;;;3.25;1.10;;;;;;;9.36;80.06;99940.78;5069041;28;20039;-85
2023/04/12 03:17:58;;;;;;;3.58;1.50;;;;;;;9.43;79.46;99926.38;5071103;28;20036;-86
2023/04/12 03:20:24;;;;;;;4.63;1.20;;;;;;;9.38;80.25;99929.25;5085867;28;20476;-85
2023/04/12 03:22:50;;;;;;;2.20;1.10;;;;;;;9.34;79.43;99908.38;5069126;28;20029;-86
2023/04/12 03:25:17;;;;;;;2.30;1.13;;;;;;;9.34;80.37;99921.56;5073084;28;20386;-85
2023/04/12 03:27:43;;;;;;;2.28;1.60;;;;;;;9.24;80.57;99904.47;5070279;28;20028;-85
2023/04/12 03:30:12;;;;;;;4.53;1.50;;;;;;;9.34;79.84;99897.81;5076391;28;20025;-85
2023/04/12 03:32:41;;;;;;;2.78;1.30;;;;;;;9.36;80.00;99890.66;5075630;28;20027;-85
2023/04/12 03:35:10;;;;;;;2.70;1.35;;;;;;;9.20;82.07;99891.44;5081078;28;20032;-85
2023/04/12 03:37:35;;;;;;;3.08;1.80;;;;;;;9.22;82.15;99895.78;5086415;28;20031;-85
2023/04/12 03:40:01;;;;;;;1.52;1.20;;;;;;;9.27;80.82;99881.41;5080245;28;20028;-85
2023/04/12 03:42:29;;;;;;;1.95;1.27;;;;;;;9.25;81.92;99885.09;5072816;28;20739;-85
2023/04/12 03:44:54;;;;;;;1.83;1.30;;;;;;;9.19;81.37;99873.91;5084640;28;20028;-85
2023/04/12 03:47:20;;;;;;;4.03;1.40;;;;;;;9.18;83.10;99872.19;5084811;28;20388;-85
2023/04/12 03:49:48;;;;;;;4.90;1.50;;;;;;;9.23;82.38;99873.75;5077288;28;20028;-85
2023/04/12 03:52:14;;;;;;;2.88;1.23;;;;;;;9.24;82.31;99862.28;5088890;28;20399;-85
2023/04/12 03:54:39;;;;;;;4.85;1.30;;;;;;;9.17;82.66;99851.16;5082460;28;20660;-85
2023/04/12 03:57:05;;;;;;;3.10;1.38;;;;;;;9.19;83.18;99860.72;5098809;28;20403;-85
2023/04/12 03:59:31;;;;;;;1.77;1.23;;;;;;;9.18;82.31;99847.59;5079999;28;20042;-85
2023/04/12 04:01:59;;;;;;;2.75;1.52;;;;;;;9.22;82.96;99849.16;5077631;28;20036;-86
2023/04/12 04:04:26;;;;;;;2.30;1.63;;;;;;;9.18;82.45;99823.88;5075702;28;20032;-85
2023/04/12 04:06:51;;;;;;;3.45;1.33;;;;;;;9.17;82.39;99843.25;5095275;28;20046;-85
2023/04/12 04:09:17;;;;;;;3.15;1.40;;;;;;;9.14;82.83;99835.53;5079851;28;20020;-85
2023/04/12 04:11:42;;;;;;;2.70;1.30;;;;;;;9.25;83.75;99832.34;5080520;28;20040;-85
2023/04/12 04:14:07;;;;;;;2.45;1.50;;;;;;;9.14;83.76;99820.56;5072679;28;21244;-86
2023/04/12 04:16:33;;;;;;;2.13;1.40;;;;;;;9.18;83.80;99808.03;5079692;28;20028;-85
2023/04/12 04:18:58;;;;;;;3.97;2.00;;;;;;;9.11;84.88;99823.34;5085998;28;20487;-85
2023/04/12 04:21:25;;;;;;;2.53;1.35;;;;;;;9.06;85.49;99811.31;5081288;28;20039;-85
2023/04/12 04:23:51;;;;;;;2.83;1.55;;;;;;;9.11;84.89;99812.78;5089544;28;20115;-85
2023/04/12 04:26:17;;;;;;;2.08;1.48;;;;;;;9.03;85.86;99807.03;5083375;28;20115;-86
2023/04/12 04:28:46;;;;;;;4.30;1.60;;;;;;;9.06;85.39;99806.91;5087439;28;20057;-85
2023/04/12 04:31:12;;;;;;;2.40;1.25;;;;;;;9.12;84.91;99798.66;5090661;28;20032;-85
2023/04/12 04:33:38;;;;;;;2.55;1.10;;;;;;;9.18;85.29;99806.25;5084990;28;20036;-85
2023/04/12 04:36:06;;;;;;;4.95;1.42;;;;;;;9.12;85.00;99789.91;5085995;28;20023;-85
2023/04/12 04:38:32;;;;;;;2.50;1.40;;;;;;;9.09;85.06;99793.56;5087204;28;20039;-85
2023/04/12 04:41:01;;;;;;;4.63;1.40;;;;;;;9.19;85.03;99788.69;5088724;28;20070;-85
2023/04/12 04:43:29;;;;;;;1.52;1.20;;;;;;;9.19;84.87;99786.03;5083968;28;20024;-85
2023/04/12 04:45:55;;;;;;;3.63;1.30;;;;;;;9.20;84.68;99787.75;5080527;28;20463;-85
2023/04/12 04:48:21;;;;;;;3.83;1.60;;;;;;;9.10;84.84;99774.19;5086026;28;20176;-85
2023/04/12 04:50:46;;;;;;;2.75;1.20;;;;;;;9.18;85.00;99787.78;5082491;28;20518;-85
2023/04/12 04:53:12;;;;;;;1.92;1.33;;;;;;;9.20;84.99;99788.59;5082932;28;20074;-86
2023/04/12 04:55:37;;;;;;;4.93;1.80;;;;;;;9.22;84.37;99764.75;5080292;28;20156;-85
2023/04/12 04:58:05;;;;;;;2.50;1.38;;;;;;;9.30;84.15;99780.19;5079951;28;20035;-85
2023/04/12 05:00:30;;;;;;;2.50;1.90;;;;;;;9.32;84.25;99778.31;5069666;28;20021;-86
2023/04/12 05:02:55;;;;;;;3.50;1.40;;;;;;;9.25;84.70;99771.69;5073975;28;20035;-85
2023/04/12 05:05:22;;;;;;;2.25;1.40;;;;;;;9.25;84.90;99764.63;5072354;28;20055;-86
2023/04/12 05:07:47;;;;;;;3.42;1.58;;;;;;;9.22;84.67;99756.00;5069156;28;20210;-85
2023/04/12 05:10:13;;;;;;;3.15;1.40;;;;;;;9.29;84.72;99757.41;5070502;28;20016;-85
2023/04/12 05:12:38;;;;;;;4.53;1.75;;;;;;;9.29;84.57;99760.03;5090264;28;20072;-85
2023/04/12 05:15:04;;;;;;;3.35;1.50;;;;;;;9.31;84.45;99766.06;5081541;28;20111;-86
2023/04/12 05:17:30;;;;;;;4.43;1.50;;;;;;;9.25;84.87;99759.34;5088025;28;20117;-85
2023/04/12 05:19:56;;;;;;;3.80;1.75;;;;;;;9.37;84.08;99760.47;5081506;28;20069;-86
2023/04/12 05:22:21;;;;;;;2.50;1.42;;;;;;;9.42;84.44;99755.84;5074811;28;20022;-85
2023/04/12 05:24:47;;;;;;;2.08;1.52;;;;;;;9.41;84.70;99748.81;5082725;28;20016;-85
2023/04/12 05:27:15;;;;;;;6.15;1.60;;;;;;;9.39;84.42;99745.44;5081911;28;20093;-85
2023/04/12 05:29:41;;;;;;;2.03;1.52;;;;;;;9.36;84.86;99756.13;5082096;28;20367;-86
2023/04/12 05:32:06;;;;;;;2.97;1.38;;;;;;;9.42;84.48;99754.03;5086456;28;20023;-85
2023/04/12 05:34:31;;;;;;;1.92;1.50;;;;;;;9.38;84.71;99746.38;5076109;28;20049;-85
2023/04/12 05:36:58;;;;;;;4.35;1.52;;;;;;;9.58;83.95;99751.44;5077697;28;20021;-86
2023/04/12 05:39:23;;;;;;;3.38;1.48;;;;;;;9.56;84.20;99745.41;5083825;28;20024;-85
2023/04/12 05:41:49;;;;;;;4.38;1.63;;;;;;;9.62;83.66;99747.69;5080179;28;20034;-85
2023/04/12 05:44:14;;;;;;;1.95;1.60;;;;;;;9.50;84.30;99750.13;5087284;28;20032;-86
2023/04/12 05:46:40;;;;;;;7.80;2.22;;;;;;;9.33;85.65;99740.50;5077231;28;20146;-85
2023/04/12 05:49:05;;;;;;;3.70;1.67;;;;;;;9.50;85.07;99742.22;5075299;28;20024;-85
2023/04/12 05:51:30;;;;;;;1.80;1.60;;;;;;;9.53;85.51;99744.69;5077314;28;20028;-86
2023/04/12 05:53:55;;;;;;;2.95;1.80;;;;;;;9.44;84.98;99733.69;5082535;28;20130;-85
2023/04/12 05:56:24;;;;;;;2.30;1.35;;;;;;;9.53;85.04;99745.56;5080101;28;20035;-86
2023/04/12 05:58:50;;;;;;;2.50;1.70;;;;;;;9.64;85.26;99744.97;5081080;28;20059;-86
2023/04/12 06:01:18;;;;;;;3.38;1.83;;;;;;;9.55;85.15;99748.94;5080559;28;20472;-85
2023/04/12 06:03:44;;;;;;;3.55;1.95;;;;;;;9.64;85.60;99737.91;5075643;28;20365;-85
2023/04/12 06:06:10;;;;;;;5.15;2.00;;;;;;;9.52;85.76;99740.38;5073396;28;20378;-86
2023/04/12 06:08:36;;;;;;;4.28;2.20;;;;;;;9.48;85.96;99726.47;5070553;28;20035;-86
2023/04/12 06:11:03;;;;;;;2.53;2.03;;;;;;;9.57;85.95;99740.97;5072232;28;20044;-85
2023/04/12 06:13:28;;;;;;;4.80;2.00;;;;;;;9.58;85.46;99725.03;5083274;28;20527;-86
2023/04/12 06:15:54;;;;;;;4.57;2.08;;;;;;;9.65;85.02;99726.44;5089266;28;20084;-85
2023/04/12 06:18:19;;;;;;;3.30;1.80;;;;;;;9.62;85.28;99723.94;5089246;28;20569;-85
2023/04/12 06:20:45;;;;;;;1.90;1.80;;;;;;;9.68;85.16;99714.84;5076864;28;20438;-86
2023/04/12 06:23:10;;;;;;;3.13;1.90;;;;;;;9.57;85.45;99723.34;5081013;28;20038;-86
2023/04/12 06:25:36;;;;;;;1.67;1.55;;;;;;;9.71;85.53;99726.09;5089549;28;20507;-85
2023/04/12 06:28:01;;;;;;;3.20;1.45;;;;;;;9.70;85.41;99713.84;5076142;28;20388;-86
2023/04/12 06:30:27;;;;;;;1.75;1.65;;;;;;;9.80;85.18;99716.81;5083191;28;20070;-85
2023/04/12 06:32:52;;;;;;;3.50;2.05;;;;;;;9.88;84.74;99716.38;5075443;28;20040;-86
2023/04/12 06:35:19;;;;;;;2.90;1.50;;;;;;;9.73;85.66;99710.16;5093219;28;20069;-86
2023/04/12 06:37:44;;;;;;;2.95;1.52;;;;;;;9.76;85.20;99709.16;5076758;28;20012;-86
2023/04/12 06:40:11;;;;;;;3.88;2.03;;;;;;;9.76;85.50;99717.06;5083508;28;20429;-85
2023/04/12 06:42:36;;;;;;;2.80;1.52;;;;;;;9.82;85.14;99682.41;5095576;28;20025;-86
2023/04/12 06:45:02;;;;;;;3.03;2.00;;;;;;;9.82;85.47;99701.75;5089070;28;20028;-86
2023/04/12 06:47:27;;;;;;;4.40;1.50;;;;;;;9.93;85.53;99701.13;5074591;28;20443;-86
2023/04/12 06:49:54;;;;;;;3.25;1.85;;;;;;;9.96;85.86;99704.47;5083625;28;20575;-85
2023/04/12 06:52:23;;;;;;;3.05;2.53;;;;;;;10.00;85.51;99702.50;5078789;28;20023;-86
2023/04/12 06:54:49;;;;;;;4.47;2.20;;;;;;;10.04;85.41;99706.69;5073380;28;20541;-86
2023/04/12 06:57:14;;;;;;;3.95;2.72;;;;;;;9.91;85.21;99706.50;5070870;28;20068;-86
2023/04/12 06:59:40;;;;;;;3.10;2.80;;;;;;;10.13;85.47;99708.81;5084209;28;20800;-86
2023/04/12 07:02:06;;;;;;;4.28;3.33;;;;;;;10.10;85.02;99718.69;5079080;28;20063;-86
2023/04/12 07:04:31;;;;;;;2.55;2.30;;;;;;;10.17;84.79;99717.41;5079918;28;20107;-86
2023/04/12 07:06:57;;;;;;;2.60;2.40;;;;;;;10.35;84.43;99724.31;5091508;28;20565;-86
2023/04/12 07:09:22;;;;;;;2.95;2.67;;;;;;;10.34;83.89;99712.03;5069149;28;20059;-86
2023/04/12 07:11:47;;;;;;;3.58;3.25;;;;;;;10.35;83.26;99712.88;5091614;28;20560;-86
2023/04/12 07:14:13;;;;;;;4.57;2.88;;;;;;;10.42;83.34;99708.97;5071718;28;20031;-86
2023/04/12 07:16:38;;;;;;;5.57;3.22;;;;;;;10.50;83.42;99714.66;5084191;28;20020;-86
2023/04/12 07:19:03;;;;;;;4.93;3.58;;;;;;;10.47;83.08;99712.19;5095377;28;20365;-86
2023/04/12 07:21:30;;;;;;;4.68;3.67;;;;;;;10.57;82.87;99723.06;5086033;28;20456;-86
2023/04/12 07:23:55;;;;;;;5.30;3.55;;;;;;;10.60;82.59;99722.91;5080337;28;20127;-86
2023/04/12 07:26:21;;;;;;;5.15;3.22;;;;;;;10.65;82.25;99716.41;5100423;27;20525;-86
2023/04/12 07:28:46;;;;;;;3.72;3.42;;;;;;;10.65;82.70;99713.75;5085450;28;20039;-86
2023/04/12 07:31:11;;;;;;;6.05;3.55;;;;;;;10.76;82.51;99721.06;5082423;28;20107;-86
2023/04/12 07:33:37;;;;;;;3.78;3.40;;;;;;;10.79;81.78;99720.88;5090182;28;20101;-86
2023/04/12 07:36:03;;;;;;;3.95;2.90;;;;;;;10.82;81.30;99731.28;5091907;28;20052;-86
2023/04/12 07:38:28;;;;;;;4.88;3.03;;;;;;;10.87;81.21;99731.03;5084900;28;20024;-86
2023/04/12 07:40:54;;;;;;;4.15;3.60;;;;;;;10.88;80.90;99720.34;5095690;28;20032;-86
2023/04/12 07:43:20;;;;;;;3.95;2.90;;;;;;;10.88;81.31;99690.41;5093821;28;20059;-86
2023/04/12 07:45:45;;;;;;;4.93;3.25;;;;;;;11.02;81.35;99708.94;5105044;28;20043;-86
2023/04/12 07:48:11;;;;;;;3.63;3.00;;;;;;;11.01;80.06;99703.75;5087247;28;20027;-86
2023/04/12 07:50:37;;;;;;;6.70;2.83;;;;;;;11.10;80.02;99704.06;5092617;28;20056;-86
2023/04/12 07:53:23;;;;;;;5.18;2.60;;;;;;;11.20;79.43;99705.19;5082592;28;20016;-86
2023/04/12 07:55:49;;;;;;;4.85;2.33;;;;;;;11.22;79.90;99697.16;5085668;28;20113;-86
2023/04/12 07:58:15;;;;;;;7.72;2.80;;;;;;;11.19;80.07;99684.09;5089486;28;20027;-86
2023/04/12 08:00:41;;;;;;;7.00;2.80;;;;;;;11.30;78.29;99705.47;5090916;28;20028;-86
2023/04/12 08:03:06;;;;;;;5.53;2.65;;;;;;;11.30;78.14;99689.59;5092892;27;20054;-86
2023/04/12 08:05:31;;;;;;;5.15;2.50;;;;;;;11.36;78.15;99705.09;5086198;28;20460;-86
2023/04/12 08:07:57;;;;;;;6.65;3.20;;;;;;;11.41;79.63;99704.81;5097950;28;20022;-86
2023/04/12 08:10:22;;;;;;;6.43;3.10;;;;;;;11.46;78.98;99692.97;5088665;28;20097;-86
2023/04/12 08:12:47;;;;;;;8.90;3.15;;;;;;;11.56;79.36;99695.91;5086520;28;20039;-86
2023/04/12 08:15:13;;;;;;;8.10;3.47;;;;;;;11.52;79.31;99702.38;5087061;28;20038;-86
2023/04/12 08:17:38;;;;;;;7.65;3.20;;;;;;;11.46;78.66;99719.44;5083050;28;20054;-87
2023/04/12 08:20:04;;;;;;;8.77;2.95;;;;;;;11.39;78.69;99719.94;5088498;28;20028;-85
2023/04/12 08:22:30;;;;;;;6.13;2.40;;;;;;;11.35;76.60;99719.28;5096463;28;20032;-86
2023/04/12 08:24:55;;;;;;;4.15;2.53;;;;;;;11.08;78.90;99718.28;5098934;28;20715;-86
2023/04/12 08:27:20;;;;;;;3.45;3.13;;;;;;;11.09;77.88;99712.91;5091360;28;20021;-86
2023/04/12 08:29:46;;;;;;;11.82;3.72;;;;;;;11.17;76.59;99715.09;5076088;28;20039;-86
2023/04/12 08:32:11;;;;;;;5.35;2.90;;;;;;;11.19;77.38;99731.72;5088178;28;20104;-86
2023/04/12 08:34:37;;;;;;;5.13;2.75;;;;;;;11.14;76.75;99710.81;5073460;28;20021;-87
2023/04/12 08:37:02;;;;;;;6.57;2.55;;;;;;;11.13;75.21;99717.06;5078967;28;20035;-86
2023/04/12 08:39:30;;;;;;;8.15;3.03;;;;;;;11.22;74.86;99713.88;5088202;28;20028;-87
2023/04/12 08:41:56;;;;;;;7.30;2.35;;;;;;;11.28;74.59;99719.72;5092325;28;20116;-86
2023/04/12 08:44:32;;;;;;;8.50;3.10;;;;;;;11.36;75.50;99723.63;5090946;28;20115;-87
2023/04/12 08:46:58;;;;;;;6.90;2.70;;;;;;;11.44;74.76;99708.13;5080574;28;20031;-86
2023/04/12 08:49:23;;;;;;;11.05;2.85;;;;;;;11.44;72.99;99697.53;5093534;28;20024;-87
2023/04/12 08:51:52;;;;;;;7.57;2.80;;;;;;;11.82;74.16;99709.31;5082215;28;20047;-87
2023/04/12 08:54:17;;;;;;;10.55;3.13;;;;;;;12.09;74.39;99698.78;5079393;28;20042;-87
2023/04/12 08:56:44;;;;;;;7.90;3.00;;;;;;;12.31;71.51;99699.09;5082779;28;20451;-87
2023/04/12 08:59:11;;;;;;;8.27;3.10;;;;;;;12.35;70.54;99699.72;5092211;28;20035;-87
2023/04/12 09:01:40;;;;;;;12.55;3.38;;;;;;;12.73;70.76;99710.47;5075423;28;20110;-87
2023/04/12 09:04:06;;;;;;;8.70;3.60;;;;;;;13.14;70.80;99702.31;5076238;28;20538;-87
2023/04/12 09:06:32;;;;;;;10.20;3.80;;;;;;;13.18;69.53;99706.47;5082646;28;20020;-88
2023/04/12 09:08:59;;;;;;;7.82;3.58;;;;;;;13.14;67.71;99694.34;5089723;28;20035;-88
2023/04/12 09:11:26;;;;;;;7.20;3.97;;;;;;;13.88;69.84;99702.47;5075134;28;20145;-87
2023/04/12 09:13:53;;;;;;;12.10;4.18;;;;;;;14.36;63.40;99678.56;5084363;28;20548;-88
2023/04/12 09:16:41;;;;;;;7.50;3.80;;;;;;;15.25;66.85;99681.53;5076096;28;20360;-88
2023/04/12 09:19:07;;;;;;;7.88;3.60;;;;;;;15.60;62.01;99698.34;5077858;28;20058;-88
2023/04/12 09:21:34;;;;;;;11.70;3.92;;;;;;;15.74;61.13;99680.31;5083479;28;21840;-88
2023/04/12 09:24:08;;;;;;;9.10;3.88;;;;;;;15.26;60.95;99677.88;5079434;28;20385;-88
2023/04/12 09:26:33;;;;;;;9.27;3.88;;;;;;;15.67;63.45;99684.47;5084206;28;20031;-88
2023/04/12 09:28:58;;;;;;;7.47;4.40;;;;;;;15.57;64.70;99676.34;5081352;28;20099;-88
2023/04/12 09:31:24;;;;;;;9.85;4.00;;;;;;;15.21;62.10;99692.53;5082024;28;20017;-88
2023/04/12 09:33:49;;;;;;;10.57;5.47;;;;;;;15.72;63.93;99686.78;5098547;28;20099;-88
2023/04/12 09:36:16;;;;;;;12.85;5.25;;;;;;;16.24;59.35;99682.53;5082685;28;20069;-88
2023/04/12 09:38:58;;;;;;;8.35;4.45;;;;;;;17.20;59.63;99678.91;5094469;28;20143;-87
2023/04/12 09:41:24;;;;;;;11.00;5.10;;;;;;;17.64;54.55;99666.19;5084672;28;20199;-87
2023/04/12 09:43:50;;;;;;;10.77;5.25;;;;;;;17.39;55.79;99670.13;5081279;28;20498;-88
2023/04/12 09:46:15;;;;;;;13.38;4.57;;;;;;;16.51;56.15;99685.59;5092789;28;20020;-87
2023/04/12 09:48:48;;;;;;;12.27;4.82;;;;;;;15.49;58.55;99661.91;5102215;28;20435;-88
2023/04/12 09:51:30;;;;;;;10.35;4.40;;;;;;;15.07;59.49;99677.63;5085014;28;20046;-88
2023/04/12 09:53:59;;;;;;;13.85;4.93;;;;;;;14.70;61.92;99674.28;5084510;28;20027;-88
2023/04/12 09:56:28;;;;;;;13.13;5.05;;;;;;;14.87;62.66;99667.66;5097143;28;20020;-88
2023/04/12 09:58:54;;;;;;;14.55;4.38;;;;;;;14.91;59.62;99666.47;5081708;28;20046;-89
2023/04/12 10:01:22;;;;;;;13.63;4.53;;;;;;;14.87;61.95;99654.34;5080903;28;20364;-89
2023/04/12 10:03:48;;;;;;;16.58;4.63;;;;;;;15.19;60.00;99658.03;5080078;28;20032;-89
2023/04/12 10:06:14;;;;;;;18.77;4.57;;;;;;;15.21;60.26;99666.75;5085626;28;20035;-89
2023/04/12 10:08:41;;;;;;;12.98;4.15;;;;;;;15.24;59.52;99669.16;5082664;28;20050;-89
2023/04/12 10:11:06;;;;;;;11.05;4.25;;;;;;;15.01;57.73;99643.47;5085032;28;20024;-90
2023/04/12 10:13:32;;;;;;;12.65;3.78;;;;;;;14.82;56.96;99656.53;5106467;28;20036;-89
2023/04/12 10:15:59;;;;;;;12.68;4.40;;;;;;;14.69;58.15;99653.97;5091402;28;20062;-89
2023/04/12 10:18:26;;;;;;;14.57;3.97;;;;;;;14.34;59.36;99676.03;5086811;28;20379;-89
2023/04/12 10:20:52;;;;;;;18.17;4.10;;;;;;;14.06;58.94;99687.84;5096325;28;20100;-89
2023/04/12 10:23:18;;;;;;;12.98;4.28;;;;;;;13.90;61.10;99681.97;5088356;28;21413;-89
2023/04/12 10:25:47;;;;;;;14.48;3.30;;;;;;;13.56;59.96;99673.75;5083903;28;20036;-89
2023/04/12 10:28:17;;;;;;;10.95;3.53;;;;;;;13.52;60.79;99665.19;5075033;28;20029;-89
2023/04/12 10:30:46;;;;;;;11.70;3.67;;;;;;;13.69;60.42;99671.06;5082465;28;20039;-88
2023/04/12 10:33:13;;;;;;;15.15;4.78;;;;;;;13.38;60.05;99675.03;5081068;28;20039;-88
2023/04/12 10:35:49;;;;;;;12.95;3.67;;;;;;;13.33;61.79;99664.75;5084885;28;20498;-88
2023/04/12 10:38:15;;;;;;;12.20;3.72;;;;;;;13.30;59.95;99688.03;5084949;28;20028;-88
2023/04/12 10:41:19;;;;;;;17.50;3.63;;;;;;;13.30;60.66;99672.09;5080273;28;20593;-88
2023/04/12 10:43:45;;;;;;;14.93;3.38;;;;;;;13.39;60.26;99682.06;5075436;28;20024;-88
2023/04/12 10:46:38;;;;;;;10.63;2.72;;;;;;;13.35;60.24;99680.59;5077324;28;20023;-87
2023/04/12 10:49:08;;;;;;;15.30;4.38;;;;;;;13.45;61.02;99690.44;5077052;28;20027;-87
2023/04/12 10:51:34;;;;;;;14.13;3.00;;;;;;;13.38;57.93;99690.97;5077600;28;20035;-87
2023/04/12 10:54:15;;;;;;;8.95;2.10;;;;;;;13.23;56.89;99698.22;5081681;28;20032;-87
2023/04/12 10:56:42;;;;;;;13.88;2.65;;;;;;;12.95;55.77;99692.13;5083502;28;20480;-88
2023/04/12 10:59:08;;;;;;;8.48;2.65;;;;;;;12.74;58.83;99690.94;5078771;28;20039;-87
2023/04/12 11:01:34;;;;;;;12.25;2.88;;;;;;;12.55;58.69;99691.31;5077369;28;20016;-87
2023/04/12 11:04:13;;;;;;;15.73;2.92;;;;;;;12.15;63.15;99703.69;5083142;28;20666;-87
2023/04/12 11:06:46;;;;;;;12.98;3.15;;;;;;;11.62;65.67;99694.69;5080620;28;20028;-87
2023/04/12 11:09:16;;;;;;;14.07;3.58;;;;;;;11.72;66.37;99703.75;5081418;28;20494;-87
2023/04/12 11:11:42;;;;;;;12.60;2.92;;;;;;;11.69;68.43;99696.00;5090450;28;20044;-87
2023/04/12 11:14:13;;;;;;;16.05;3.72;;;;;;;11.93;67.89;99697.09;5091627;28;20032;-87
2023/04/12 11:17:13;;;;;;;15.30;4.22;;;;;;;12.24;67.66;99701.28;5081713;28;20502;-87
2023/04/12 11:19:40;;;;;;;10.32;3.72;;;;;;;12.27;64.97;99705.53;5085105;28;20475;-87
2023/04/12 11:22:10;;;;;;;15.38;4.03;;;;;;;12.13;66.19;99713.53;5076270;28;20030;-87
2023/04/12 11:24:43;;;;;;;12.20;4.60;;;;;;;12.09;66.50;99718.19;5080498;28;20081;-85
2023/04/12 11:27:09;;;;;;;14.95;4.97;;;;;;;12.03;68.65;99715.06;5080733;28;20016;-85
2023/04/12 11:29:35;;;;;;;12.95;5.25;;;;;;;12.07;69.83;99713.91;5079869;28;20047;-86
2023/04/12 11:32:04;;;;;;;16.27;5.45;;;;;;;11.77;68.85;99701.66;5082478;28;20093;-86
2023/04/12 11:34:35;;;;;;;15.60;5.35;;;;;;;11.89;70.64;99714.16;5089588;28;20055;-85
2023/04/12 11:37:07;;;;;;;14.35;4.80;;;;;;;11.80;70.48;99697.94;5097535;28;20426;-86